createdAt,value
2022-12-02T00:02:05.093Z,2.90
2022-12-02T00:04:32.951Z,2.83
2022-12-02T00:07:00.623Z,2.81
2022-12-02T00:09:31.187Z,2.87
2022-12-02T00:11:59.036Z,2.80
2022-12-02T00:14:28.087Z,2.84
2022-12-02T00:16:56.546Z,2.88
2022-12-02T00:19:24.007Z,2.86
2022-12-02T00:21:52.188Z,2.79
2022-12-02T00:24:20.122Z,2.84
2022-12-02T00:26:48.748Z,2.85
2022-12-02T00:29:16.050Z,2.77
2022-12-02T00:31:43.459Z,2.73
2022-12-02T00:34:10.667Z,2.76
2022-12-02T00:36:37.912Z,2.74
2022-12-02T00:39:05.340Z,2.75
2022-12-02T00:41:32.655Z,2.74
2022-12-02T00:44:01.374Z,2.76
2022-12-02T00:46:28.717Z,2.85
2022-12-02T00:48:56.473Z,2.91
2022-12-02T00:51:23.747Z,2.86
2022-12-02T00:53:52.629Z,2.80
2022-12-02T00:56:20.043Z,2.83
2022-12-02T00:58:47.782Z,2.76
2022-12-02T01:01:17.013Z,2.69
2022-12-02T01:03:46.254Z,2.69
2022-12-02T01:06:14.540Z,2.64
2022-12-02T01:08:42.264Z,2.65
2022-12-02T01:11:10.192Z,2.60
2022-12-02T01:13:37.706Z,2.59
2022-12-02T01:16:06.065Z,2.61
2022-12-02T01:18:35.368Z,2.56
2022-12-02T01:21:02.912Z,2.55
2022-12-02T01:23:30.188Z,2.59
2022-12-02T01:25:57.524Z,2.53
2022-12-02T01:28:24.702Z,2.51
2022-12-02T01:30:52.013Z,2.52
2022-12-02T01:33:19.236Z,2.54
2022-12-02T01:35:47.836Z,2.57
2022-12-02T01:38:15.070Z,2.58
2022-12-02T01:40:42.475Z,2.58
2022-12-02T01:43:09.937Z,2.59
2022-12-02T01:45:37.245Z,2.63
2022-12-02T01:48:05.179Z,2.61
2022-12-02T01:50:33.145Z,2.57
2022-12-02T01:53:02.352Z,2.64
2022-12-02T01:55:29.857Z,2.70
2022-12-02T01:57:58.301Z,2.67
2022-12-02T02:00:26.797Z,2.66
2022-12-02T02:02:54.524Z,2.65
2022-12-02T02:05:24.181Z,2.64
2022-12-02T02:07:54.694Z,2.62
2022-12-02T02:10:25.517Z,2.59
2022-12-02T02:12:54.192Z,2.56
2022-12-02T02:15:22.654Z,2.60
2022-12-02T02:17:50.792Z,2.65
2022-12-02T02:20:21.433Z,2.62
2022-12-02T02:22:56.373Z,2.58
2022-12-02T02:25:25.307Z,2.56
2022-12-02T02:27:55.226Z,2.59
2022-12-02T02:30:23.856Z,2.64
2022-12-02T02:32:52.862Z,2.57
2022-12-02T02:35:21.662Z,2.63
2022-12-02T02:37:52.126Z,2.62
2022-12-02T02:40:21.665Z,2.68
2022-12-02T02:42:53.943Z,2.71
2022-12-02T02:45:24.886Z,2.71
2022-12-02T02:47:55.007Z,2.66
2022-12-02T02:50:23.382Z,2.58
2022-12-02T02:52:51.741Z,2.56
2022-12-02T02:55:21.455Z,2.56
2022-12-02T02:57:49.343Z,2.54
2022-12-02T03:00:20.259Z,2.54
2022-12-02T03:02:52.590Z,2.57
2022-12-02T03:05:21.877Z,2.52
2022-12-02T03:07:51.534Z,2.55
2022-12-02T03:10:19.365Z,2.60
2022-12-02T03:12:46.979Z,2.59
2022-12-02T03:15:14.941Z,2.59
2022-12-02T03:17:43.478Z,2.51
2022-12-02T03:20:11.575Z,2.51
2022-12-02T03:22:39.224Z,2.55
2022-12-02T03:25:07.922Z,2.57
2022-12-02T03:27:35.435Z,2.63
2022-12-02T03:30:03.682Z,2.54
2022-12-02T03:32:31.187Z,2.59
2022-12-02T03:35:02.018Z,2.56
2022-12-02T03:37:29.494Z,2.55
2022-12-02T03:39:57.162Z,2.49
2022-12-02T03:42:25.952Z,2.57
2022-12-02T03:44:53.785Z,2.50
2022-12-02T03:47:21.208Z,2.54
2022-12-02T03:49:48.726Z,2.54
2022-12-02T03:52:17.459Z,2.57
2022-12-02T03:54:48.317Z,2.55
2022-12-02T03:57:19.432Z,2.43
2022-12-02T03:59:46.865Z,2.45
2022-12-02T04:02:14.300Z,2.45
2022-12-02T04:04:41.548Z,2.48
2022-12-02T04:07:08.879Z,2.41
2022-12-02T04:09:37.373Z,2.35
2022-12-02T04:12:05.189Z,2.41
2022-12-02T04:14:32.377Z,2.47
2022-12-02T04:17:03.802Z,2.40
2022-12-02T04:19:34.153Z,2.39
2022-12-02T04:22:01.392Z,2.37
2022-12-02T04:24:29.020Z,2.31
2022-12-02T04:26:57.610Z,2.29
2022-12-02T04:29:24.997Z,2.31
2022-12-02T04:31:52.235Z,2.25
2022-12-02T04:34:19.641Z,2.12
2022-12-02T04:36:46.826Z,2.05
2022-12-02T04:39:14.050Z,1.99
2022-12-02T04:41:41.292Z,1.91
2022-12-02T04:44:12.585Z,1.86
2022-12-02T04:46:42.398Z,1.89
2022-12-02T04:49:09.601Z,1.86
2022-12-02T04:51:36.889Z,1.86
2022-12-02T04:54:04.161Z,1.79
2022-12-02T04:56:31.600Z,1.81
2022-12-02T04:58:58.843Z,1.87
2022-12-02T05:01:28.642Z,1.81
2022-12-02T05:03:55.986Z,1.80
2022-12-02T05:06:23.314Z,1.75
2022-12-02T05:08:50.746Z,1.78
2022-12-02T05:11:17.977Z,1.73
2022-12-02T05:13:45.205Z,1.76
2022-12-02T05:16:12.528Z,1.72
2022-12-02T05:18:41.452Z,1.70
2022-12-02T05:21:08.699Z,1.81
2022-12-02T05:23:35.928Z,1.75
2022-12-02T05:26:03.357Z,1.73
2022-12-02T05:28:30.513Z,1.80
2022-12-02T05:30:57.805Z,1.73
2022-12-02T05:33:25.085Z,1.70
2022-12-02T05:35:53.717Z,1.75
2022-12-02T05:38:20.943Z,1.87
2022-12-02T05:40:48.821Z,1.79
2022-12-02T05:43:19.131Z,1.76
2022-12-02T05:45:46.971Z,1.68
2022-12-02T05:48:15.929Z,1.78
2022-12-02T05:50:44.126Z,1.80
2022-12-02T05:53:21.711Z,1.83
2022-12-02T05:55:49.267Z,1.74
2022-12-02T05:58:17.988Z,1.70
2022-12-02T06:00:45.468Z,1.74
2022-12-02T06:03:18.790Z,1.72
2022-12-02T06:05:48.091Z,1.64
2022-12-02T06:08:18.675Z,1.68
2022-12-02T06:10:48.470Z,1.71
2022-12-02T06:13:19.696Z,1.70
2022-12-02T06:15:47.990Z,1.70
2022-12-02T06:18:18.205Z,1.73
2022-12-02T06:20:46.891Z,1.79
2022-12-02T06:23:16.543Z,1.78
2022-12-02T06:25:46.772Z,1.82
2022-12-02T06:28:24.507Z,1.79
2022-12-02T06:30:55.907Z,1.82
2022-12-02T06:33:28.864Z,1.79
2022-12-02T06:35:57.923Z,1.92
2022-12-02T06:38:32.091Z,1.82
2022-12-02T06:41:11.265Z,1.85
2022-12-02T06:43:38.630Z,1.86
2022-12-02T06:46:14.442Z,1.89
2022-12-02T06:48:41.845Z,1.79
2022-12-02T06:51:16.052Z,1.86
2022-12-02T06:53:44.804Z,1.96
2022-12-02T06:56:20.864Z,1.97
2022-12-02T06:59:00.176Z,2.00
2022-12-02T07:01:33.233Z,1.95
2022-12-02T07:04:26.174Z,2.01
2022-12-02T07:06:58.168Z,1.98
2022-12-02T07:09:32.669Z,1.88
2022-12-02T07:12:01.737Z,1.99
2022-12-02T07:14:37.476Z,1.94
2022-12-02T07:17:19.052Z,1.92
2022-12-02T07:19:48.733Z,1.96
2022-12-02T07:22:18.788Z,1.99
2022-12-02T07:24:52.257Z,1.98
2022-12-02T07:27:24.504Z,2.05
2022-12-02T07:29:54.396Z,2.04
2022-12-02T07:32:21.661Z,2.07
2022-12-02T07:34:51.932Z,2.07
2022-12-02T07:37:20.161Z,2.09
2022-12-02T07:39:47.339Z,1.96
2022-12-02T07:42:14.560Z,1.95
2022-12-02T07:44:43.209Z,2.07
2022-12-02T07:47:10.624Z,1.94
2022-12-02T07:49:37.813Z,1.91
2022-12-02T07:52:05.095Z,1.89
2022-12-02T07:54:32.267Z,1.96
2022-12-02T07:56:59.600Z,1.98
2022-12-02T07:59:26.948Z,1.94
2022-12-02T08:01:55.571Z,1.91
2022-12-02T08:04:22.891Z,1.90
2022-12-02T08:06:50.202Z,1.84
2022-12-02T08:09:20.109Z,1.91
2022-12-02T08:11:47.328Z,1.95
2022-12-02T08:14:14.702Z,1.90
2022-12-02T08:16:42.124Z,1.85
2022-12-02T08:19:10.824Z,1.93
2022-12-02T08:21:38.073Z,1.99
2022-12-02T08:24:06.054Z,1.97
2022-12-02T08:26:34.248Z,1.96
2022-12-02T08:29:01.705Z,1.94
2022-12-02T08:31:29.046Z,1.96
2022-12-02T08:33:56.513Z,1.98
2022-12-02T08:36:25.456Z,2.07
2022-12-02T08:38:52.904Z,2.00
2022-12-02T08:41:20.607Z,2.05
2022-12-02T08:43:47.984Z,2.10
2022-12-02T08:46:15.598Z,2.04
2022-12-02T08:48:42.866Z,2.03
2022-12-02T08:51:10.104Z,2.08
2022-12-02T08:53:38.675Z,2.08
2022-12-02T08:56:06.365Z,2.13
2022-12-02T08:58:33.617Z,2.19
2022-12-02T09:01:00.879Z,2.18
2022-12-02T09:03:28.191Z,2.20
2022-12-02T09:05:55.894Z,2.20
2022-12-02T09:08:23.141Z,2.20
2022-12-02T09:10:52.113Z,2.22
2022-12-02T09:13:19.806Z,2.18
2022-12-02T09:15:47.447Z,2.25
2022-12-02T09:18:14.949Z,2.35
2022-12-02T09:20:42.590Z,2.39
2022-12-02T09:23:09.911Z,2.32
2022-12-02T09:25:37.424Z,2.42
2022-12-02T09:28:06.163Z,2.41
2022-12-02T09:30:33.943Z,2.41
2022-12-02T09:33:01.314Z,2.35
2022-12-02T09:35:28.688Z,2.54
2022-12-02T09:37:56.144Z,2.40
2022-12-02T09:40:23.708Z,2.43
2022-12-02T09:42:51.497Z,2.51
2022-12-02T09:45:21.779Z,2.47
2022-12-02T09:47:49.361Z,2.45
2022-12-02T09:50:17.273Z,2.48
2022-12-02T09:52:45.953Z,2.51
2022-12-02T09:55:15.858Z,2.49
2022-12-02T09:57:43.620Z,2.57
2022-12-02T10:00:15.893Z,2.57
2022-12-02T10:02:46.862Z,2.58
2022-12-02T10:05:17.487Z,2.53
2022-12-02T10:07:46.307Z,2.63
2022-12-02T10:10:16.349Z,2.61
2022-12-02T10:12:43.849Z,2.66
2022-12-02T10:15:13.105Z,2.70
2022-12-02T10:17:42.503Z,2.70
2022-12-02T10:20:18.358Z,2.69
2022-12-02T10:23:17.405Z,2.83
2022-12-02T10:25:46.412Z,2.87
2022-12-02T10:28:26.375Z,2.70
2022-12-02T10:30:56.513Z,2.86
2022-12-02T10:33:26.158Z,2.92
2022-12-02T10:35:56.365Z,2.99
2022-12-02T10:38:30.186Z,2.85
2022-12-02T10:41:19.446Z,2.85
2022-12-02T10:44:04.435Z,2.99
2022-12-02T10:46:32.809Z,2.88
2022-12-02T10:49:32.901Z,2.88
2022-12-02T10:52:07.541Z,2.87
2022-12-02T10:54:41.421Z,2.95
2022-12-02T10:57:16.351Z,2.85
2022-12-02T10:59:43.815Z,2.86
2022-12-02T11:02:20.210Z,2.85
2022-12-02T11:04:47.747Z,2.84
2022-12-02T11:07:17.902Z,2.94
2022-12-02T11:09:52.629Z,2.77
2022-12-02T11:12:56.699Z,2.82
2022-12-02T11:15:43.108Z,2.84
2022-12-02T11:18:32.545Z,2.77
2022-12-02T11:21:36.333Z,2.98
2022-12-02T11:24:36.959Z,2.81
2022-12-02T11:27:12.172Z,2.88
2022-12-02T11:30:24.607Z,2.84
2022-12-02T11:32:53.366Z,2.87
2022-12-02T11:35:59.242Z,2.88
2022-12-02T11:38:29.566Z,2.93
2022-12-02T11:41:00.318Z,3.00
2022-12-02T11:43:55.292Z,3.02
2022-12-02T11:46:38.882Z,3.10
2022-12-02T11:49:22.847Z,3.13
2022-12-02T11:51:50.333Z,3.11
2022-12-02T11:54:19.023Z,3.03
2022-12-02T11:56:47.146Z,3.18
2022-12-02T11:59:23.478Z,3.13
2022-12-02T12:01:51.533Z,3.21
2022-12-02T12:04:28.354Z,3.20
2022-12-02T12:06:57.562Z,3.41
2022-12-02T12:09:25.288Z,3.44
2022-12-02T12:12:13.086Z,3.34
2022-12-02T12:15:10.374Z,3.34
2022-12-02T12:17:45.573Z,3.32
2022-12-02T12:20:46.634Z,3.29
2022-12-02T12:23:27.848Z,3.38
2022-12-02T12:25:55.107Z,3.42
2022-12-02T12:28:26.038Z,3.50
2022-12-02T12:30:53.832Z,3.47
2022-12-02T12:33:21.343Z,3.60
2022-12-02T12:35:52.626Z,3.63
2022-12-02T12:38:20.100Z,3.47
2022-12-02T12:40:47.330Z,3.42
2022-12-02T12:43:14.882Z,3.40
2022-12-02T12:45:42.242Z,3.37
2022-12-02T12:48:09.579Z,3.41
2022-12-02T12:50:36.861Z,3.51
2022-12-02T12:53:05.579Z,3.46
2022-12-02T12:55:33.005Z,3.36
2022-12-02T12:58:00.410Z,3.36
2022-12-02T13:00:27.890Z,3.36
2022-12-02T13:02:55.196Z,3.21
2022-12-02T13:05:22.627Z,3.22
2022-12-02T13:07:49.922Z,3.13
2022-12-02T13:10:19.819Z,3.11
2022-12-02T13:12:47.187Z,3.12
2022-12-02T13:15:14.682Z,3.04
2022-12-02T13:17:48.539Z,3.08
2022-12-02T13:20:17.549Z,3.10
2022-12-02T13:22:45.221Z,3.11
2022-12-02T13:25:17.762Z,3.07
2022-12-02T13:27:46.730Z,3.01
2022-12-02T13:30:17.207Z,3.00
2022-12-02T13:32:47.441Z,3.00
2022-12-02T13:35:21.894Z,3.02
2022-12-02T13:37:50.026Z,2.98
2022-12-02T13:40:19.140Z,2.94
2022-12-02T13:42:47.848Z,2.93
2022-12-02T13:45:15.278Z,2.96
2022-12-02T13:47:42.652Z,2.94
2022-12-02T13:50:13.177Z,2.90
2022-12-02T13:52:40.712Z,2.87
2022-12-02T13:55:08.796Z,2.98
2022-12-02T13:57:36.148Z,2.95
2022-12-02T14:00:06.493Z,2.95
2022-12-02T14:02:40.171Z,2.93
2022-12-02T14:05:08.399Z,2.86
2022-12-02T14:07:35.799Z,2.90
2022-12-02T14:10:03.965Z,2.85
2022-12-02T14:12:31.356Z,2.84
2022-12-02T14:14:58.773Z,2.87
2022-12-02T14:17:27.317Z,2.88
2022-12-02T14:19:54.718Z,2.86
2022-12-02T14:22:22.048Z,2.81
2022-12-02T14:24:49.538Z,2.78
2022-12-02T14:27:17.228Z,2.79
2022-12-02T14:29:44.470Z,2.80
2022-12-02T14:32:11.689Z,2.86
2022-12-02T14:34:40.445Z,2.80
2022-12-02T14:37:14.366Z,2.82
2022-12-02T14:39:42.488Z,2.84
2022-12-02T14:42:09.770Z,2.84
2022-12-02T14:44:37.305Z,2.85
2022-12-02T14:47:04.770Z,2.81
2022-12-02T14:49:41.040Z,2.81
2022-12-02T14:52:10.385Z,2.78
2022-12-02T14:54:37.659Z,2.81
2022-12-02T14:57:05.130Z,2.78
2022-12-02T14:59:32.612Z,2.81
2022-12-02T15:02:00.260Z,2.81
2022-12-02T15:04:27.583Z,2.77
2022-12-02T15:06:55.072Z,2.82
2022-12-02T15:09:23.841Z,2.82
2022-12-02T15:11:51.110Z,2.74
2022-12-02T15:14:18.374Z,2.77
2022-12-02T15:16:46.015Z,2.80
2022-12-02T15:19:13.349Z,2.79
2022-12-02T15:21:40.612Z,2.73
2022-12-02T15:24:08.226Z,2.75
2022-12-02T15:26:37.145Z,2.74
2022-12-02T15:29:04.484Z,2.76
2022-12-02T15:31:34.473Z,2.79
2022-12-02T15:34:01.766Z,2.72
2022-12-02T15:36:29.142Z,2.75
2022-12-02T15:38:56.451Z,2.76
2022-12-02T15:41:23.708Z,2.75
2022-12-02T15:43:54.130Z,2.74
2022-12-02T15:46:21.882Z,2.71
2022-12-02T15:48:51.586Z,2.75
2022-12-02T15:51:19.215Z,2.77
2022-12-02T15:53:46.748Z,2.70
2022-12-02T15:56:14.760Z,2.74
2022-12-02T15:58:42.014Z,2.73
2022-12-02T16:01:10.720Z,2.75
2022-12-02T16:03:38.254Z,2.69
2022-12-02T16:06:06.153Z,2.66
2022-12-02T16:08:33.618Z,2.69
2022-12-02T16:11:01.385Z,2.75
2022-12-02T16:13:28.800Z,2.71
2022-12-02T16:15:56.142Z,2.69
2022-12-02T16:18:25.213Z,2.69
2022-12-02T16:20:55.678Z,2.72
2022-12-02T16:23:23.331Z,2.70
2022-12-02T16:25:50.687Z,2.68
2022-12-02T16:28:18.373Z,2.74
2022-12-02T16:30:45.940Z,2.66
2022-12-02T16:33:13.186Z,2.68
2022-12-02T16:35:41.749Z,2.66
2022-12-02T16:38:09.215Z,2.65
2022-12-02T16:40:36.393Z,2.59
2022-12-02T16:43:03.756Z,2.60
2022-12-02T16:45:31.129Z,2.59
2022-12-02T16:47:58.543Z,2.59
2022-12-02T16:50:25.817Z,2.59
2022-12-02T16:52:54.471Z,2.64
2022-12-02T16:55:21.662Z,2.63
2022-12-02T16:57:49.028Z,2.62
2022-12-02T17:00:16.958Z,2.58
2022-12-02T17:02:44.238Z,2.63
2022-12-02T17:05:11.560Z,2.60
2022-12-02T17:07:38.904Z,2.63
2022-12-02T17:10:08.713Z,2.65
2022-12-02T17:12:35.973Z,2.64
2022-12-02T17:15:03.824Z,2.59
2022-12-02T17:17:45.291Z,2.59
2022-12-02T17:20:14.462Z,2.57
2022-12-02T17:22:41.773Z,2.56
2022-12-02T17:25:11.362Z,2.55
2022-12-02T17:27:38.782Z,2.60
2022-12-02T17:30:07.485Z,2.61
2022-12-02T17:32:34.735Z,2.63
2022-12-02T17:35:02.121Z,2.65
2022-12-02T17:37:29.330Z,2.70
2022-12-02T17:39:56.630Z,2.62
2022-12-02T17:42:25.482Z,2.61
2022-12-02T17:44:52.875Z,2.63
2022-12-02T17:47:20.147Z,2.62
2022-12-02T17:49:47.415Z,2.60
2022-12-02T17:52:21.937Z,2.63
2022-12-02T17:54:49.880Z,2.59
2022-12-02T17:57:17.323Z,2.63
2022-12-02T17:59:45.932Z,2.57
2022-12-02T18:02:13.508Z,2.54
2022-12-02T18:04:40.988Z,2.59
2022-12-02T18:07:09.777Z,2.59
2022-12-02T18:09:37.188Z,2.56
2022-12-02T18:12:05.017Z,2.62
2022-12-02T18:14:32.754Z,2.54
2022-12-02T18:17:01.713Z,2.51
2022-12-02T18:19:29.055Z,2.55
2022-12-02T18:21:56.305Z,2.53
2022-12-02T18:24:23.893Z,2.55
2022-12-02T18:26:51.308Z,2.51
2022-12-02T18:29:18.625Z,2.51
2022-12-02T18:31:45.835Z,2.48
2022-12-02T18:34:14.501Z,2.51
2022-12-02T18:36:41.767Z,2.48
2022-12-02T18:39:09.188Z,2.46
2022-12-02T18:41:36.431Z,2.43
2022-12-02T18:44:03.699Z,2.43
2022-12-02T18:46:31.077Z,2.46
2022-12-02T18:48:58.326Z,2.44
2022-12-02T18:51:26.933Z,2.44
2022-12-02T18:53:54.203Z,2.49
2022-12-02T18:56:24.298Z,2.52
2022-12-02T18:58:52.106Z,2.51
2022-12-02T19:01:19.569Z,2.54
2022-12-02T19:03:46.897Z,2.53
2022-12-02T19:06:14.208Z,2.58
2022-12-02T19:08:42.857Z,2.53
2022-12-02T19:11:10.342Z,2.53
2022-12-02T19:13:37.666Z,2.59
2022-12-02T19:16:07.926Z,2.59
2022-12-02T19:18:35.162Z,2.56
2022-12-02T19:21:02.529Z,2.58
2022-12-02T19:23:30.233Z,2.53
2022-12-02T19:25:59.132Z,2.56
2022-12-02T19:28:26.573Z,2.52
2022-12-02T19:30:53.907Z,2.51
2022-12-02T19:33:21.263Z,2.58
2022-12-02T19:35:48.560Z,2.55
2022-12-02T19:38:16.032Z,2.57
2022-12-02T19:40:45.620Z,2.55
2022-12-02T19:43:15.023Z,2.55
2022-12-02T19:45:42.782Z,2.60
2022-12-02T19:48:10.453Z,2.59
2022-12-02T19:50:37.973Z,2.59
2022-12-02T19:53:05.406Z,2.57
2022-12-02T19:55:32.603Z,2.58
2022-12-02T19:57:59.809Z,2.61
2022-12-02T20:00:28.495Z,2.61
2022-12-02T20:02:55.902Z,2.64
2022-12-02T20:05:23.179Z,2.58
2022-12-02T20:07:50.820Z,2.61
2022-12-02T20:10:18.934Z,2.66
2022-12-02T20:12:46.486Z,2.62
2022-12-02T20:15:15.200Z,2.55
2022-12-02T20:17:43.912Z,2.57
2022-12-02T20:20:13.268Z,2.64
2022-12-02T20:22:40.821Z,2.60
2022-12-02T20:25:09.785Z,2.60
2022-12-02T20:27:37.365Z,2.55
2022-12-02T20:30:05.907Z,2.57
2022-12-02T20:32:33.371Z,2.62
2022-12-02T20:35:02.160Z,2.63
2022-12-02T20:37:29.647Z,2.56
2022-12-02T20:39:59.599Z,2.62
2022-12-02T20:42:27.071Z,2.63
2022-12-02T20:44:55.139Z,2.64
2022-12-02T20:47:22.771Z,2.63
2022-12-02T20:49:50.048Z,2.62
2022-12-02T20:52:18.862Z,2.62
2022-12-02T20:54:46.187Z,2.62
2022-12-02T20:57:13.693Z,2.68
2022-12-02T20:59:41.259Z,2.64
2022-12-02T21:02:10.225Z,2.67
2022-12-02T21:04:37.905Z,2.70
2022-12-02T21:07:09.416Z,2.70
2022-12-02T21:09:38.578Z,2.69
2022-12-02T21:12:06.483Z,2.71
2022-12-02T21:14:34.214Z,2.68
2022-12-02T21:17:01.425Z,2.70
2022-12-02T21:19:28.923Z,2.72
2022-12-02T21:21:56.077Z,2.75
2022-12-02T21:24:23.352Z,2.73
2022-12-02T21:26:51.985Z,2.71
2022-12-02T21:29:20.566Z,2.71
2022-12-02T21:31:47.978Z,2.69
2022-12-02T21:34:15.568Z,2.71
2022-12-02T21:36:43.144Z,2.71
2022-12-02T21:39:10.623Z,2.71
2022-12-02T21:41:37.905Z,2.69
2022-12-02T21:44:06.651Z,2.73
2022-12-02T21:46:33.995Z,2.74
2022-12-02T21:49:01.405Z,2.75
2022-12-02T21:51:28.683Z,2.75
2022-12-02T21:53:56.021Z,2.80
2022-12-02T21:56:23.457Z,2.84
2022-12-02T21:58:50.790Z,2.86
2022-12-02T22:01:19.480Z,2.87
2022-12-02T22:03:47.115Z,2.86
2022-12-02T22:06:14.655Z,2.89
2022-12-02T22:08:42.054Z,2.88
2022-12-02T22:11:09.468Z,2.95
2022-12-02T22:13:36.803Z,2.99
2022-12-02T22:16:04.525Z,2.95
2022-12-02T22:18:33.467Z,2.97
2022-12-02T22:21:00.841Z,2.99
2022-12-02T22:23:28.152Z,3.01
2022-12-02T22:25:55.508Z,3.05
2022-12-02T22:28:25.581Z,3.03
2022-12-02T22:30:52.872Z,3.05
2022-12-02T22:33:20.189Z,3.05
2022-12-02T22:35:48.898Z,3.11
2022-12-02T22:38:16.509Z,3.09
2022-12-02T22:40:43.865Z,3.14
2022-12-02T22:43:11.179Z,3.09
2022-12-02T22:45:38.691Z,3.08
2022-12-02T22:48:06.276Z,3.14
2022-12-02T22:50:33.565Z,3.13
2022-12-02T22:53:02.289Z,3.11
2022-12-02T22:55:29.627Z,3.08
2022-12-02T22:57:56.992Z,3.13
2022-12-02T23:00:24.494Z,3.14
2022-12-02T23:02:51.965Z,3.14
2022-12-02T23:05:19.661Z,3.10
2022-12-02T23:07:47.150Z,3.15
2022-12-02T23:10:16.104Z,3.18
2022-12-02T23:12:43.607Z,3.11
2022-12-02T23:15:35.134Z,3.13
2022-12-02T23:17:58.645Z,3.18
2022-12-02T23:20:26.062Z,3.16
2022-12-02T23:22:53.457Z,3.14
2022-12-02T23:25:22.424Z,3.21
2022-12-02T23:27:49.795Z,3.17
2022-12-02T23:30:17.611Z,3.19
2022-12-02T23:32:45.220Z,3.16
2022-12-02T23:35:12.805Z,3.22
2022-12-02T23:37:40.152Z,3.18
2022-12-02T23:40:08.258Z,3.20
2022-12-02T23:42:38.504Z,3.22
2022-12-02T23:45:07.318Z,3.17
2022-12-02T23:47:35.345Z,3.17
2022-12-02T23:50:02.961Z,3.18
2022-12-02T23:52:30.400Z,3.14
2022-12-02T23:54:57.835Z,3.15
2022-12-02T23:57:25.858Z,3.18
2022-12-02T23:59:54.640Z,3.23
